Time;durP1;ratioP1;P1;durP2;ratioP2;P2;SDS_P1;SDS_P2;PMS_P1;PMS_P2;Temp;Humidity;BMP_temperature;BMP_pressure;BME280_temperature;BME280_humidity;BME280_pressure;Samples;Min_cycle;Max_cycle;Signal;HPM_P1;HPM_P2
2021/01/14 00:01:59;;;;;;;;;;;28.30;34.80;;;;;;5072760;28;19915;-64
2021/01/14 00:04:24;;;;;;;;;;;28.30;35.00;;;;;;5074742;28;19919;-64
2021/01/14 00:06:53;;;;;;;;;;;28.20;34.90;;;;;;5072614;28;19931;-64
2021/01/14 00:09:19;;;;;;;;;;;28.30;34.90;;;;;;5082135;28;19923;-64
2021/01/14 00:11:45;;;;;;;;;;;28.20;34.80;;;;;;5088296;28;19913;-65
2021/01/14 00:14:10;;;;;;;;;;;28.20;34.80;;;;;;5072916;28;19908;-64
2021/01/14 00:16:36;;;;;;;;;;;28.20;34.80;;;;;;5072446;28;19915;-64
2021/01/14 00:19:01;;;;;;;;;;;28.20;34.80;;;;;;5081293;28;19950;-65
2021/01/14 00:21:27;;;;;;;;;;;28.20;35.50;;;;;;5092906;28;20358;-64
2021/01/14 00:23:52;;;;;;;;;;;28.20;34.80;;;;;;5084949;28;20606;-64
2021/01/14 00:26:18;;;;;;;;;;;28.20;34.80;;;;;;5086331;28;19916;-65
2021/01/14 00:28:43;;;;;;;;;;;28.20;34.70;;;;;;5080225;28;19916;-64
2021/01/14 00:31:09;;;;;;;;;;;28.20;34.60;;;;;;5092353;28;20271;-65
2021/01/14 00:33:34;;;;;;;;;;;28.20;34.70;;;;;;5087772;28;19958;-65
2021/01/14 00:36:00;;;;;;;;;;;28.20;34.50;;;;;;5076884;28;20382;-65
2021/01/14 00:38:25;;;;;;;;;;;28.20;34.50;;;;;;5080156;28;19920;-65
2021/01/14 00:40:50;;;;;;;;;;;28.20;34.60;;;;;;5096759;28;19915;-64
2021/01/14 00:43:16;;;;;;;;;;;28.20;34.50;;;;;;5086559;28;20294;-64
2021/01/14 00:45:41;;;;;;;;;;;28.20;34.50;;;;;;5076299;28;19915;-64
2021/01/14 00:48:07;;;;;;;;;;;28.20;34.50;;;;;;5075861;28;19912;-64
2021/01/14 00:50:32;;;;;;;;;;;28.10;34.40;;;;;;5076330;28;19996;-64
2021/01/14 00:52:58;;;;;;;;;;;28.10;34.50;;;;;;5076129;28;19916;-65
2021/01/14 00:55:23;;;;;;;;;;;28.10;34.30;;;;;;5082064;28;19916;-64
2021/01/14 00:57:49;;;;;;;;;;;28.20;34.50;;;;;;5096435;28;19973;-64
2021/01/14 01:00:15;;;;;;;;;;;28.20;34.30;;;;;;5076969;28;20008;-64
2021/01/14 01:02:42;;;;;;;;;;;28.10;34.40;;;;;;5077219;28;19912;-64
2021/01/14 01:05:08;;;;;;;;;;;28.10;34.50;;;;;;5095394;28;20374;-64
2021/01/14 01:07:33;;;;;;;;;;;28.20;34.20;;;;;;5096456;28;20011;-64
2021/01/14 01:09:59;;;;;;;;;;;28.10;34.50;;;;;;5078937;28;19962;-63
2021/01/14 01:12:24;;;;;;;;;;;28.10;34.20;;;;;;5076006;28;19912;-63
2021/01/14 01:14:49;;;;;;;;;;;28.00;34.20;;;;;;5091182;28;19937;-64
2021/01/14 01:17:15;;;;;;;;;;;28.10;34.50;;;;;;5096254;28;19915;-64
2021/01/14 01:19:40;;;;;;;;;;;28.10;34.30;;;;;;5081584;28;20407;-64
2021/01/14 01:22:06;;;;;;;;;;;28.10;34.20;;;;;;5075982;28;19916;-64
2021/01/14 01:24:31;;;;;;;;;;;28.10;34.30;;;;;;5087092;28;20274;-64
2021/01/14 01:26:57;;;;;;;;;;;28.10;34.20;;;;;;5093569;28;19908;-64
2021/01/14 01:29:22;;;;;;;;;;;28.10;34.30;;;;;;5082482;28;19916;-64
2021/01/14 01:31:48;;;;;;;;;;;28.00;34.10;;;;;;5075328;28;19924;-64
2021/01/14 01:34:13;;;;;;;;;;;28.00;34.30;;;;;;5085475;28;19938;-64
2021/01/14 01:36:39;;;;;;;;;;;28.00;34.00;;;;;;5092256;28;19912;-64
2021/01/14 01:39:04;;;;;;;;;;;28.00;34.10;;;;;;5075145;28;19966;-65
2021/01/14 01:41:30;;;;;;;;;;;28.00;34.10;;;;;;5075703;28;19926;-65
2021/01/14 01:43:55;;;;;;;;;;;28.00;34.00;;;;;;5083058;28;20334;-64
2021/01/14 01:46:25;;;;;;;;;;;28.00;34.00;;;;;;5084547;28;19973;-65
2021/01/14 01:48:50;;;;;;;;;;;28.00;34.10;;;;;;5075362;28;19944;-65
2021/01/14 01:51:16;;;;;;;;;;;28.00;34.00;;;;;;5075370;28;19948;-64
2021/01/14 01:53:41;;;;;;;;;;;28.00;34.20;;;;;;5084667;28;19963;-64
2021/01/14 01:56:07;;;;;;;;;;;27.90;34.10;;;;;;5093531;28;19919;-65
2021/01/14 01:58:34;;;;;;;;;;;28.00;34.10;;;;;;5088664;28;19933;-64
2021/01/14 02:00:59;;;;;;;;;;;27.90;34.00;;;;;;5090569;28;19908;-64
2021/01/14 02:03:25;;;;;;;;;;;27.90;34.00;;;;;;5080893;28;20324;-64
2021/01/14 02:05:50;;;;;;;;;;;27.90;34.00;;;;;;5092344;28;20391;-64
2021/01/14 02:08:17;;;;;;;;;;;27.90;34.00;;;;;;5075151;28;19913;-64
2021/01/14 02:10:43;;;;;;;;;;;27.90;34.10;;;;;;5089027;28;20297;-64
2021/01/14 02:13:08;;;;;;;;;;;27.90;34.10;;;;;;5076313;28;19915;-64
2021/01/14 02:15:34;;;;;;;;;;;27.90;34.00;;;;;;5094901;28;19955;-64
2021/01/14 02:17:59;;;;;;;;;;;27.90;33.90;;;;;;5086533;28;19935;-63
2021/01/14 02:20:25;;;;;;;;;;;27.90;33.90;;;;;;5090334;28;20640;-64
2021/01/14 02:22:56;;;;;;;;;;;27.80;33.90;;;;;;5090480;28;19919;-65
2021/01/14 02:25:26;;;;;;;;;;;27.90;34.00;;;;;;5082788;28;19919;-64
2021/01/14 02:27:51;;;;;;;;;;;27.80;34.00;;;;;;5080786;28;19917;-64
2021/01/14 02:30:17;;;;;;;;;;;27.90;34.10;;;;;;5075491;28;20395;-64
2021/01/14 02:32:42;;;;;;;;;;;27.80;34.00;;;;;;5080205;28;19916;-64
2021/01/14 02:35:08;;;;;;;;;;;27.80;34.00;;;;;;5093140;28;19919;-64
2021/01/14 02:37:34;;;;;;;;;;;27.80;34.10;;;;;;5094391;28;19912;-64
2021/01/14 02:39:59;;;;;;;;;;;27.80;34.20;;;;;;5093051;28;19928;-64
2021/01/14 02:42:25;;;;;;;;;;;27.80;34.40;;;;;;5094608;28;20350;-64
2021/01/14 02:44:50;;;;;;;;;;;27.80;34.10;;;;;;5078185;28;19948;-64
2021/01/14 02:47:16;;;;;;;;;;;27.70;34.10;;;;;;5074353;28;19917;-64
2021/01/14 02:49:48;;;;;;;;;;;27.70;34.20;;;;;;5078712;28;19924;-65
2021/01/14 02:52:13;;;;;;;;;;;27.70;34.20;;;;;;5074334;28;19912;-64
2021/01/14 02:54:39;;;;;;;;;;;27.70;34.20;;;;;;5076332;28;20390;-64
2021/01/14 02:57:05;;;;;;;;;;;27.70;34.30;;;;;;5073210;28;19908;-64
2021/01/14 02:59:31;;;;;;;;;;;27.70;34.20;;;;;;5076461;28;19925;-64
2021/01/14 03:01:56;;;;;;;;;;;27.70;34.20;;;;;;5081576;28;19916;-64
2021/01/14 03:04:22;;;;;;;;;;;27.70;34.30;;;;;;5079788;28;20553;-64
2021/01/14 03:06:47;;;;;;;;;;;27.60;34.30;;;;;;5073721;28;19916;-64
2021/01/14 03:09:13;;;;;;;;;;;27.60;34.10;;;;;;5084080;28;20344;-64
2021/01/14 03:11:38;;;;;;;;;;;27.70;34.20;;;;;;5094155;28;19908;-64
2021/01/14 03:14:04;;;;;;;;;;;27.70;34.20;;;;;;5084615;28;20484;-64
2021/01/14 03:16:35;;;;;;;;;;;27.70;34.30;;;;;;5080800;28;19918;-63
2021/01/14 03:19:00;;;;;;;;;;;27.60;34.10;;;;;;5093928;28;19916;-64
2021/01/14 03:21:26;;;;;;;;;;;27.70;34.30;;;;;;5094001;28;20309;-63
2021/01/14 03:23:51;;;;;;;;;;;27.70;34.00;;;;;;5086071;28;19920;-63
2021/01/14 03:26:17;;;;;;;;;;;27.60;34.20;;;;;;5089031;28;20271;-64
2021/01/14 03:28:43;;;;;;;;;;;27.60;34.20;;;;;;5073907;28;19960;-63
2021/01/14 03:31:09;;;;;;;;;;;27.60;34.20;;;;;;5092076;28;20335;-64
2021/01/14 03:33:34;;;;;;;;;;;27.60;34.20;;;;;;5078563;28;19954;-64
2021/01/14 03:36:00;;;;;;;;;;;27.60;34.20;;;;;;5083594;28;19908;-64
2021/01/14 03:38:25;;;;;;;;;;;27.60;34.20;;;;;;5088992;28;20009;-64
2021/01/14 03:40:51;;;;;;;;;;;27.60;34.00;;;;;;5073237;28;19915;-64
2021/01/14 03:43:16;;;;;;;;;;;27.60;34.20;;;;;;5074363;28;19913;-64
2021/01/14 03:45:41;;;;;;;;;;;27.60;34.20;;;;;;5073248;28;19912;-63
2021/01/14 03:48:07;;;;;;;;;;;27.60;34.20;;;;;;5082739;28;19912;-63
2021/01/14 03:50:33;;;;;;;;;;;27.60;34.20;;;;;;5093459;28;20400;-62
2021/01/14 03:52:58;;;;;;;;;;;27.50;33.90;;;;;;5092622;28;19909;-64
2021/01/14 03:55:25;;;;;;;;;;;27.50;34.10;;;;;;5085781;28;19946;-63
2021/01/14 03:57:50;;;;;;;;;;;27.60;34.20;;;;;;5093156;28;19916;-63
2021/01/14 04:00:16;;;;;;;;;;;27.50;34.10;;;;;;5074934;28;19909;-63
2021/01/14 04:02:41;;;;;;;;;;;27.50;34.00;;;;;;5091469;28;19919;-64
2021/01/14 04:05:08;;;;;;;;;;;27.50;34.20;;;;;;5074839;28;19913;-64
2021/01/14 04:07:34;;;;;;;;;;;27.50;34.20;;;;;;5072381;28;20359;-64
2021/01/14 04:10:01;;;;;;;;;;;27.50;34.10;;;;;;5071859;28;20042;-63
2021/01/14 04:12:27;;;;;;;;;;;27.50;34.10;;;;;;5072927;28;20002;-64
2021/01/14 04:14:53;;;;;;;;;;;27.50;34.20;;;;;;5072682;28;19912;-64
2021/01/14 04:17:18;;;;;;;;;;;27.50;34.10;;;;;;5072641;28;20446;-64
2021/01/14 04:19:44;;;;;;;;;;;27.50;34.10;;;;;;5074851;28;19951;-64
2021/01/14 04:22:09;;;;;;;;;;;27.50;34.10;;;;;;5072609;28;19999;-64
2021/01/14 04:24:36;;;;;;;;;;;27.50;34.10;;;;;;5081821;28;19951;-63
2021/01/14 04:27:05;;;;;;;;;;;27.50;34.20;;;;;;5074637;28;20011;-64
2021/01/14 04:29:30;;;;;;;;;;;27.50;34.10;;;;;;5084268;28;19912;-62
2021/01/14 04:31:58;;;;;;;;;;;27.40;34.10;;;;;;5088097;28;20402;-64
2021/01/14 04:34:23;;;;;;;;;;;27.50;34.10;;;;;;5080681;28;19989;-63
2021/01/14 04:37:15;;;;;;;;;;;27.50;34.10;;;;;;5072679;28;20003;-64
2021/01/14 04:39:40;;;;;;;;;;;27.50;34.10;;;;;;5085199;28;19920;-63
2021/01/14 04:42:06;;;;;;;;;;;27.50;34.10;;;;;;5092736;28;19931;-64
2021/01/14 04:44:32;;;;;;;;;;;27.50;34.00;;;;;;5078911;28;19919;-63
2021/01/14 04:47:03;;;;;;;;;;;27.50;33.70;;;;;;5072567;28;19908;-63
2021/01/14 04:49:29;;;;;;;;;;;27.50;33.90;;;;;;5087842;28;20325;-64
2021/01/14 04:51:57;;;;;;;;;;;27.50;33.80;;;;;;5075081;28;19974;-64
2021/01/14 04:54:22;;;;;;;;;;;27.50;34.10;;;;;;5084966;28;19999;-64
2021/01/14 04:56:48;;;;;;;;;;;27.50;33.90;;;;;;5072379;28;19940;-64
2021/01/14 04:59:15;;;;;;;;;;;27.50;33.90;;;;;;5075090;28;19924;-64
2021/01/14 05:01:41;;;;;;;;;;;27.50;33.90;;;;;;5052279;28;19916;-63
2021/01/14 05:04:06;;;;;;;;;;;27.50;33.90;;;;;;5071109;28;19962;-64
2021/01/14 05:06:36;;;;;;;;;;;27.50;34.10;;;;;;5091042;28;19951;-63
2021/01/14 05:09:02;;;;;;;;;;;27.60;33.90;;;;;;5089006;28;19970;-63
2021/01/14 05:11:28;;;;;;;;;;;27.60;34.00;;;;;;5072458;28;19912;-63
2021/01/14 05:13:53;;;;;;;;;;;27.50;33.60;;;;;;5072052;28;20551;-64
2021/01/14 05:16:19;;;;;;;;;;;27.50;33.70;;;;;;5087977;28;19973;-63
2021/01/14 05:18:45;;;;;;;;;;;27.50;33.70;;;;;;5078199;28;19947;-63
2021/01/14 05:21:10;;;;;;;;;;;27.50;33.50;;;;;;5095222;28;19908;-64
2021/01/14 05:23:36;;;;;;;;;;;27.50;33.80;;;;;;5091468;28;20297;-64
2021/01/14 05:26:01;;;;;;;;;;;27.50;33.50;;;;;;5078633;28;19912;-64
2021/01/14 05:28:30;;;;;;;;;;;27.50;33.50;;;;;;5083821;28;19913;-64
2021/01/14 05:31:17;;;;;;;;;;;27.50;33.90;;;;;;5093660;28;19931;-63
2021/01/14 05:33:42;;;;;;;;;;;27.50;33.70;;;;;;5083562;28;19913;-63
2021/01/14 05:36:08;;;;;;;;;;;27.50;33.50;;;;;;5075365;28;20281;-63
2021/01/14 05:38:33;;;;;;;;;;;27.50;33.50;;;;;;5080123;28;19924;-64
2021/01/14 05:41:20;;;;;;;;;;;27.50;33.60;;;;;;5095557;28;19969;-64
2021/01/14 05:43:56;;;;;;;;;;;27.50;33.70;;;;;;5088792;28;19913;-64
2021/01/14 05:46:22;;;;;;;;;;;27.50;33.60;;;;;;5075421;28;19991;-63
2021/01/14 05:48:48;;;;;;;;;;;27.50;33.70;;;;;;5082250;28;19919;-64
2021/01/14 05:51:14;;;;;;;;;;;27.50;33.40;;;;;;5078629;28;19917;-65
2021/01/14 05:53:40;;;;;;;;;;;27.50;33.70;;;;;;5075362;28;20322;-64
2021/01/14 05:56:05;;;;;;;;;;;27.50;33.50;;;;;;5070811;28;19957;-64
2021/01/14 05:58:31;;;;;;;;;;;27.50;33.40;;;;;;5076167;28;20015;-64
2021/01/14 06:00:56;;;;;;;;;;;27.50;33.50;;;;;;5090538;28;19908;-64
2021/01/14 06:03:28;;;;;;;;;;;27.50;33.70;;;;;;5091310;28;19920;-63
2021/01/14 06:05:54;;;;;;;;;;;27.50;33.40;;;;;;5095265;28;19950;-63
2021/01/14 06:08:26;;;;;;;;;;;27.50;33.60;;;;;;5093343;28;19983;-64
2021/01/14 06:10:51;;;;;;;;;;;27.50;33.60;;;;;;5094923;28;19958;-64
2021/01/14 06:13:17;;;;;;;;;;;27.50;33.50;;;;;;5092333;28;19947;-64
2021/01/14 06:15:42;;;;;;;;;;;27.50;33.50;;;;;;5074739;28;20121;-64
2021/01/14 06:18:09;;;;;;;;;;;27.50;33.30;;;;;;5076237;28;19916;-64
2021/01/14 06:20:35;;;;;;;;;;;27.50;33.50;;;;;;5082380;28;19913;-64
2021/01/14 06:23:00;;;;;;;;;;;27.50;33.40;;;;;;5090538;28;20574;-63
2021/01/14 06:25:26;;;;;;;;;;;27.50;33.30;;;;;;5078628;28;19913;-64
2021/01/14 06:27:55;;;;;;;;;;;27.50;33.30;;;;;;5083146;28;19920;-64
2021/01/14 06:30:21;;;;;;;;;;;27.50;33.40;;;;;;5080729;28;19959;-64
2021/01/14 06:32:46;;;;;;;;;;;27.50;33.40;;;;;;5085544;28;19951;-59
2021/01/14 06:35:12;;;;;;;;;;;27.50;33.70;;;;;;5089907;28;19912;-60
2021/01/14 06:37:37;;;;;;;;;;;27.30;32.70;;;;;;5073359;28;20319;-61
2021/01/14 06:40:03;;;;;;;;;;;;;;;;;;5065641;28;19916;-61
2021/01/14 06:42:33;;;;;;;;;;;24.00;29.30;;;;;;5082980;28;20378;-61
2021/01/14 06:44:58;;;;;;;;;;;22.90;32.00;;;;;;5074204;28;19954;-61
2021/01/14 06:47:39;;;;;;;;;;;21.90;34.10;;;;;;5074155;28;19908;-62
2021/01/14 06:50:25;;;;;;;;;;;20.80;35.20;;;;;;5074292;28;20289;-63
2021/01/14 06:53:00;;;;;;;;;;;21.90;35.30;;;;;;5074195;28;19912;-62
2021/01/14 06:55:26;;;;;;;;;;;23.30;33.50;;;;;;5073967;28;20023;-63
2021/01/14 06:58:06;;;;;;;;;;;24.40;32.10;;;;;;5073823;28;20456;-62
2021/01/14 07:00:38;;;;;;;;;;;25.20;31.10;;;;;;5074275;28;19918;-61
2021/01/14 07:03:15;;;;;;;;;;;25.70;30.60;;;;;;5074036;28;19966;-55
2021/01/14 07:05:53;;;;;;;;;;;26.10;31.00;;;;;;5074022;28;19909;-64
2021/01/14 07:08:37;;;;;;;;;;;26.50;34.60;;;;;;5074092;28;19999;-60
2021/01/14 07:11:03;;;;;;;;;;;26.70;36.30;;;;;;5073495;28;20017;-62
2021/01/14 07:13:32;;;;;;;;;;;26.90;36.20;;;;;;5073635;28;19950;-62
2021/01/14 07:15:58;;;;;;;;;;;27.00;36.90;;;;;;5073580;28;19908;-61
2021/01/14 07:18:28;;;;;;;;;;;27.10;36.60;;;;;;5073575;28;19920;-61
2021/01/14 07:20:54;;;;;;;;;;;27.20;36.50;;;;;;5073332;28;19932;-61
2021/01/14 07:23:19;;;;;;;;;;;27.30;35.90;;;;;;5073393;28;19948;-62
2021/01/14 07:25:45;;;;;;;;;;;27.40;35.70;;;;;;5072390;28;20384;-61
2021/01/14 07:28:10;;;;;;;;;;;27.40;35.60;;;;;;5073776;28;19952;-61
2021/01/14 07:30:36;;;;;;;;;;;27.40;36.20;;;;;;5079238;28;19920;-63
2021/01/14 07:33:05;;;;;;;;;;;27.50;35.90;;;;;;5092040;28;20029;-61
2021/01/14 07:35:35;;;;;;;;;;;27.50;36.20;;;;;;5074809;28;19912;-62
2021/01/14 07:38:01;;;;;;;;;;;27.50;35.90;;;;;;5072900;28;20302;-62
2021/01/14 07:40:27;;;;;;;;;;;27.50;36.40;;;;;;5079798;28;19950;-58
2021/01/14 07:42:52;;;;;;;;;;;27.60;36.40;;;;;;5092924;28;19912;-59
2021/01/14 07:45:18;;;;;;;;;;;27.60;36.70;;;;;;5072205;28;20282;-63
2021/01/14 07:47:43;;;;;;;;;;;27.60;36.70;;;;;;5073000;28;19916;-62
2021/01/14 07:50:27;;;;;;;;;;;27.60;36.80;;;;;;5080701;28;19912;-63
2021/01/14 07:52:53;;;;;;;;;;;27.60;36.60;;;;;;5093313;28;20300;-64
2021/01/14 07:55:25;;;;;;;;;;;27.60;36.80;;;;;;5079230;28;20396;-63
2021/01/14 07:58:03;;;;;;;;;;;27.60;36.90;;;;;;5078334;28;20309;-65
2021/01/14 08:00:29;;;;;;;;;;;27.60;37.50;;;;;;5093140;28;19915;-62
2021/01/14 08:03:21;;;;;;;;;;;27.60;37.10;;;;;;5092751;28;19947;-62
2021/01/14 08:05:56;;;;;;;;;;;27.70;37.20;;;;;;5051450;28;19944;-51
2021/01/14 08:08:28;;;;;;;;;;;27.60;37.10;;;;;;5059971;28;19912;-58
2021/01/14 08:11:10;;;;;;;;;;;27.50;37.20;;;;;;5091816;28;19916;-59
2021/01/14 08:13:54;;;;;;;;;;;27.50;37.00;;;;;;5086239;28;19913;-57
2021/01/14 08:16:28;;;;;;;;;;;27.50;36.90;;;;;;5072899;28;19908;-59
2021/01/14 08:19:07;;;;;;;;;;;27.60;36.80;;;;;;5077582;28;20381;-63
2021/01/14 08:21:32;;;;;;;;;;;27.60;36.70;;;;;;5092806;28;19971;-66
2021/01/14 08:23:58;;;;;;;;;;;27.60;36.70;;;;;;5087290;28;19981;-62
2021/01/14 08:26:23;;;;;;;;;;;27.60;36.90;;;;;;5093013;28;20293;-62
2021/01/14 08:28:57;;;;;;;;;;;27.60;37.00;;;;;;5084345;28;19964;-61
2021/01/14 08:31:37;;;;;;;;;;;27.70;37.20;;;;;;5081102;28;19967;-64
2021/01/14 08:34:06;;;;;;;;;;;27.70;37.20;;;;;;5079523;28;19916;-62
2021/01/14 08:36:39;;;;;;;;;;;27.60;37.00;;;;;;5092634;28;20354;-64
2021/01/14 08:39:04;;;;;;;;;;;27.60;36.70;;;;;;5072485;28;19932;-62
2021/01/14 08:41:30;;;;;;;;;;;27.60;36.70;;;;;;5087865;28;19913;-55
2021/01/14 08:44:00;;;;;;;;;;;27.60;37.00;;;;;;5082943;28;20414;-58
2021/01/14 08:46:38;;;;;;;;;;;27.60;36.70;;;;;;5073222;28;19913;-59
2021/01/14 08:49:16;;;;;;;;;;;27.70;36.90;;;;;;5082563;28;19977;-64
2021/01/14 08:51:42;;;;;;;;;;;27.80;36.40;;;;;;5092770;28;19915;-59
2021/01/14 08:54:08;;;;;;;;;;;28.10;36.30;;;;;;5091035;28;19912;-54
2021/01/14 08:56:33;;;;;;;;;;;28.00;36.60;;;;;;5091797;28;19913;-60
2021/01/14 08:59:12;;;;;;;;;;;28.20;36.20;;;;;;5087168;28;19924;-58
2021/01/14 09:01:37;;;;;;;;;;;28.30;35.90;;;;;;5094693;28;19912;-61
2021/01/14 09:04:04;;;;;;;;;;;28.40;35.80;;;;;;5083897;28;19920;-60
2021/01/14 09:06:29;;;;;;;;;;;28.50;35.60;;;;;;5076186;28;19919;-60
2021/01/14 09:08:57;;;;;;;;;;;28.50;35.50;;;;;;5078502;28;19916;-60
2021/01/14 09:11:26;;;;;;;;;;;28.40;35.50;;;;;;5077347;28;19912;-52
2021/01/14 09:14:02;;;;;;;;;;;28.40;35.60;;;;;;5089845;28;19937;-55
2021/01/14 09:16:27;;;;;;;;;;;28.40;35.70;;;;;;5082340;28;20321;-59
2021/01/14 09:18:53;;;;;;;;;;;28.40;36.10;;;;;;5076064;28;19928;-59
2021/01/14 09:21:18;;;;;;;;;;;28.50;35.40;;;;;;5076169;28;19908;-56
2021/01/14 09:23:44;;;;;;;;;;;28.50;35.40;;;;;;5075874;28;19917;-49
2021/01/14 09:26:11;;;;;;;;;;;28.50;35.60;;;;;;5075686;28;19949;-53
2021/01/14 09:28:36;;;;;;;;;;;28.50;36.00;;;;;;5075354;28;19909;-56
2021/01/14 09:31:03;;;;;;;;;;;28.50;35.50;;;;;;5079477;28;19927;-56
2021/01/14 09:33:29;;;;;;;;;;;28.60;35.60;;;;;;5091529;28;20726;-57
2021/01/14 09:36:01;;;;;;;;;;;28.70;35.50;;;;;;5095721;28;20393;-51
2021/01/14 09:38:27;;;;;;;;;;;28.70;35.40;;;;;;5095606;28;19923;-53
2021/01/14 09:40:53;;;;;;;;;;;28.80;35.50;;;;;;5095723;28;19908;-62
2021/01/14 09:43:19;;;;;;;;;;;28.80;35.40;;;;;;5095586;28;19915;-57
2021/01/14 09:45:45;;;;;;;;;;;28.80;35.90;;;;;;5095981;28;20348;-59
2021/01/14 09:48:10;;;;;;;;;;;28.80;35.30;;;;;;5079894;28;19919;-59
2021/01/14 09:50:36;;;;;;;;;;;28.90;35.20;;;;;;5075117;28;19909;-56
2021/01/14 09:53:06;;;;;;;;;;;28.90;35.20;;;;;;5090800;28;19948;-51
2021/01/14 09:55:32;;;;;;;;;;;28.90;35.30;;;;;;5075208;28;19913;-51
2021/01/14 09:57:57;;;;;;;;;;;28.80;35.50;;;;;;5090648;28;19923;-51
2021/01/14 10:00:23;;;;;;;;;;;28.90;35.50;;;;;;5090767;28;20361;-53
2021/01/14 10:02:50;;;;;;;;;;;28.80;35.50;;;;;;5095453;28;19912;-58
2021/01/14 10:05:15;;;;;;;;;;;28.90;35.30;;;;;;5093497;28;20427;-54
2021/01/14 10:07:48;;;;;;;;;;;28.90;35.30;;;;;;5091211;28;19916;-52
2021/01/14 10:10:13;;;;;;;;;;;29.00;35.20;;;;;;5075876;28;19912;-54
2021/01/14 10:12:39;;;;;;;;;;;29.00;35.20;;;;;;5080370;28;19962;-53
2021/01/14 10:15:14;;;;;;;;;;;29.10;35.20;;;;;;5075090;28;19908;-52
2021/01/14 10:17:40;;;;;;;;;;;29.10;35.10;;;;;;5074612;28;20317;-54
2021/01/14 10:20:07;;;;;;;;;;;29.10;35.10;;;;;;5075047;28;20023;-55
2021/01/14 10:22:34;;;;;;;;;;;29.10;35.10;;;;;;5074917;28;19908;-58
2021/01/14 10:25:18;;;;;;;;;;;29.10;35.30;;;;;;5074844;28;19920;-55
2021/01/14 10:28:03;;;;;;;;;;;29.10;35.10;;;;;;5073930;28;19956;-48
2021/01/14 10:30:29;;;;;;;;;;;28.90;28.30;;;;;;5063888;28;19967;-47
2021/01/14 10:33:01;;;;;;;;;;;28.20;33.20;;;;;;5054573;28;19909;-48
2021/01/14 10:35:28;;;;;;;;;;;28.20;32.60;;;;;;5055145;28;19932;-48
2021/01/14 10:38:19;;;;;;;;;;;28.30;33.10;;;;;;5081110;28;19912;-52
2021/01/14 10:40:46;;;;;;;;;;;28.60;34.30;;;;;;5092110;28;20319;-49
2021/01/14 10:43:11;;;;;;;;;;;28.70;34.30;;;;;;5094795;28;19912;-59
2021/01/14 10:45:37;;;;;;;;;;;28.80;34.70;;;;;;5090995;28;20385;-50
2021/01/14 10:48:13;;;;;;;;;;;28.80;35.00;;;;;;5094953;28;19951;-56
2021/01/14 10:50:48;;;;;;;;;;;28.80;34.80;;;;;;5094922;28;19946;-51
2021/01/14 10:53:23;;;;;;;;;;;28.90;35.00;;;;;;5094474;28;19909;-56
2021/01/14 10:55:58;;;;;;;;;;;29.00;35.00;;;;;;5094580;28;20239;-56
2021/01/14 10:58:24;;;;;;;;;;;29.00;35.00;;;;;;5093214;28;19973;-58
2021/01/14 11:00:49;;;;;;;;;;;29.00;35.00;;;;;;5084487;28;19912;-63
2021/01/14 11:03:19;;;;;;;;;;;29.00;34.80;;;;;;5073992;28;20263;-56
2021/01/14 11:05:45;;;;;;;;;;;29.00;34.80;;;;;;5074148;28;19913;-59
2021/01/14 11:08:12;;;;;;;;;;;29.10;35.00;;;;;;5073887;28;20393;-57
2021/01/14 11:10:37;;;;;;;;;;;29.10;34.90;;;;;;5073635;28;20370;-62
2021/01/14 11:13:07;;;;;;;;;;;29.10;34.70;;;;;;5074250;28;19931;-61
2021/01/14 11:15:32;;;;;;;;;;;29.10;34.70;;;;;;5079475;28;19999;-62
2021/01/14 11:17:58;;;;;;;;;;;29.10;34.70;;;;;;5079408;28;20007;-63
2021/01/14 11:20:23;;;;;;;;;;;29.10;34.70;;;;;;5073487;28;19938;-61
2021/01/14 11:22:49;;;;;;;;;;;29.10;34.70;;;;;;5073520;28;19909;-59
2021/01/14 11:25:14;;;;;;;;;;;29.10;35.00;;;;;;5073611;28;20414;-59
2021/01/14 11:27:40;;;;;;;;;;;29.10;34.90;;;;;;5073317;28;19953;-59
2021/01/14 11:30:06;;;;;;;;;;;29.10;34.90;;;;;;5073193;28;19960;-59
2021/01/14 11:32:32;;;;;;;;;;;29.10;34.80;;;;;;5081445;28;20290;-56
2021/01/14 11:34:57;;;;;;;;;;;29.10;34.90;;;;;;5093902;28;19908;-58
2021/01/14 11:37:23;;;;;;;;;;;29.10;34.90;;;;;;5093692;28;20384;-58
2021/01/14 11:39:48;;;;;;;;;;;29.10;34.70;;;;;;5093258;28;19916;-58
2021/01/14 11:42:14;;;;;;;;;;;29.10;34.70;;;;;;5093780;28;19935;-57
2021/01/14 11:44:39;;;;;;;;;;;29.20;34.70;;;;;;5093432;28;19909;-59
2021/01/14 11:47:04;;;;;;;;;;;29.20;34.70;;;;;;5077343;28;19966;-59
2021/01/14 11:49:31;;;;;;;;;;;29.20;34.70;;;;;;5093638;28;20362;-64
2021/01/14 11:51:56;;;;;;;;;;;29.20;34.70;;;;;;5093230;28;20362;-61
2021/01/14 11:54:22;;;;;;;;;;;29.20;34.60;;;;;;5093601;28;19918;-57
2021/01/14 11:56:51;;;;;;;;;;;29.20;34.60;;;;;;5093184;28;19909;-59
2021/01/14 11:59:16;;;;;;;;;;;29.20;34.60;;;;;;5093198;28;19916;-57
2021/01/14 12:01:41;;;;;;;;;;;29.30;34.60;;;;;;5092001;28;19920;-56
2021/01/14 12:04:07;;;;;;;;;;;29.20;34.70;;;;;;5072860;28;19966;-58
2021/01/14 12:06:32;;;;;;;;;;;29.20;34.80;;;;;;5072987;28;19913;-61
2021/01/14 12:08:58;;;;;;;;;;;29.20;34.90;;;;;;5083958;28;20293;-58
2021/01/14 12:11:26;;;;;;;;;;;29.10;35.00;;;;;;5092972;28;20006;-57
2021/01/14 12:13:52;;;;;;;;;;;29.10;35.00;;;;;;5093194;28;19908;-59
2021/01/14 12:16:18;;;;;;;;;;;29.10;35.00;;;;;;5092837;28;20019;-60
2021/01/14 12:18:43;;;;;;;;;;;29.10;35.00;;;;;;5093093;28;19924;-62
2021/01/14 12:21:13;;;;;;;;;;;29.20;35.20;;;;;;5093119;28;20320;-65
2021/01/14 12:23:38;;;;;;;;;;;29.10;35.30;;;;;;5081945;28;19909;-64
2021/01/14 12:26:04;;;;;;;;;;;29.10;35.60;;;;;;5072765;28;19939;-56
2021/01/14 12:28:29;;;;;;;;;;;29.10;36.00;;;;;;5072275;28;19915;-57
2021/01/14 12:30:55;;;;;;;;;;;29.10;36.50;;;;;;5072436;28;19927;-58
2021/01/14 12:33:20;;;;;;;;;;;29.10;36.80;;;;;;5072516;28;20270;-57
2021/01/14 12:35:46;;;;;;;;;;;29.20;36.80;;;;;;5072568;28;19913;-59
2021/01/14 12:38:11;;;;;;;;;;;29.30;37.00;;;;;;5080792;28;20418;-67
2021/01/14 12:40:37;;;;;;;;;;;29.20;31.30;;;;;;5092863;28;19916;-60
2021/01/14 12:43:02;;;;;;;;;;;28.70;29.50;;;;;;5092498;28;19912;-61
2021/01/14 12:45:27;;;;;;;;;;;28.30;31.20;;;;;;5092541;28;19940;-60
2021/01/14 12:47:53;;;;;;;;;;;28.20;30.70;;;;;;5094154;28;20269;-59
2021/01/14 12:50:18;;;;;;;;;;;28.10;31.40;;;;;;5092738;28;19997;-69
2021/01/14 12:52:44;;;;;;;;;;;28.10;31.40;;;;;;5088715;28;20011;-68
2021/01/14 12:55:10;;;;;;;;;;;28.30;32.60;;;;;;5083457;28;19923;-68
2021/01/14 12:57:35;;;;;;;;;;;28.40;33.10;;;;;;5092671;28;19970;-70
2021/01/14 13:00:01;;;;;;;;;;;28.40;31.80;;;;;;5092298;28;19969;-67
2021/01/14 13:02:26;;;;;;;;;;;28.50;32.10;;;;;;5092546;28;19914;-70
2021/01/14 13:04:52;;;;;;;;;;;28.50;32.00;;;;;;5092198;28;19915;-62
2021/01/14 13:07:17;;;;;;;;;;;28.50;32.20;;;;;;5090939;28;20006;-56
2021/01/14 13:09:43;;;;;;;;;;;28.70;32.30;;;;;;5072356;28;19916;-60
2021/01/14 13:12:09;;;;;;;;;;;28.90;32.30;;;;;;5072122;28;19920;-60
2021/01/14 13:14:34;;;;;;;;;;;29.10;32.50;;;;;;5072154;28;19923;-65
2021/01/14 13:16:59;;;;;;;;;;;28.90;28.20;;;;;;5071960;28;19908;-64
2021/01/14 13:19:26;;;;;;;;;;;28.50;29.20;;;;;;5072199;28;19917;-60
2021/01/14 13:21:52;;;;;;;;;;;28.30;29.80;;;;;;5071945;28;19916;-60
2021/01/14 13:24:18;;;;;;;;;;;28.30;29.80;;;;;;5091553;28;20370;-65
2021/01/14 13:26:44;;;;;;;;;;;28.30;29.80;;;;;;5080761;28;20007;-68
2021/01/14 13:29:09;;;;;;;;;;;28.20;30.00;;;;;;5072144;28;19986;-59
2021/01/14 13:31:38;;;;;;;;;;;28.30;31.30;;;;;;5071835;28;20018;-55
2021/01/14 13:34:04;;;;;;;;;;;28.50;32.10;;;;;;5071891;28;19968;-58
2021/01/14 13:36:29;;;;;;;;;;;28.80;31.80;;;;;;5071705;28;20008;-59
2021/01/14 13:38:55;;;;;;;;;;;29.00;31.80;;;;;;5072047;28;19924;-58
2021/01/14 13:41:22;;;;;;;;;;;29.10;32.40;;;;;;5072487;28;20022;-61
2021/01/14 13:43:47;;;;;;;;;;;29.20;32.00;;;;;;5056636;28;19920;-61
2021/01/14 13:46:13;;;;;;;;;;;29.30;32.60;;;;;;5055768;28;19909;-61
2021/01/14 13:48:38;;;;;;;;;;;29.40;32.40;;;;;;5055273;28;19909;-64
2021/01/14 13:51:04;;;;;;;;;;;29.50;33.10;;;;;;5055627;28;19917;-65
2021/01/14 13:53:29;;;;;;;;;;;29.50;32.90;;;;;;5055538;28;20365;-62
2021/01/14 13:55:55;;;;;;;;;;;29.50;33.00;;;;;;5077180;28;20421;-62
2021/01/14 13:58:20;;;;;;;;;;;29.60;32.80;;;;;;5082678;28;20358;-62
2021/01/14 14:00:46;;;;;;;;;;;29.60;32.80;;;;;;5095293;28;19908;-62
2021/01/14 14:03:12;;;;;;;;;;;29.60;32.90;;;;;;5095514;28;19955;-65
2021/01/14 14:05:38;;;;;;;;;;;29.70;33.10;;;;;;5095393;28;19914;-63
2021/01/14 14:08:03;;;;;;;;;;;29.70;33.50;;;;;;5095136;28;20366;-61
2021/01/14 14:10:30;;;;;;;;;;;29.70;33.40;;;;;;5095417;28;19915;-58
2021/01/14 14:12:56;;;;;;;;;;;29.70;33.40;;;;;;5089214;28;19919;-56
2021/01/14 14:15:21;;;;;;;;;;;29.70;33.40;;;;;;5074974;28;19991;-51
2021/01/14 14:17:47;;;;;;;;;;;29.70;34.00;;;;;;5074746;28;19962;-62
2021/01/14 14:20:12;;;;;;;;;;;29.60;34.10;;;;;;5075103;28;19995;-60